createdAt,value
2022-12-14T00:01:40.173Z,10.77
2022-12-14T00:06:34.427Z,9.65
2022-12-14T00:09:03.755Z,8.20
2022-12-14T00:11:32.694Z,9.65
2022-12-14T00:14:01.579Z,12.35
2022-12-14T00:16:31.744Z,9.82
2022-12-14T00:19:00.440Z,11.00
2022-12-14T00:21:28.526Z,10.98
2022-12-14T00:23:57.818Z,9.85
2022-12-14T00:26:27.583Z,10.18
2022-12-14T00:28:56.067Z,11.00
2022-12-14T00:31:24.733Z,7.13
2022-12-14T00:33:52.695Z,11.38
2022-12-14T00:36:19.800Z,11.07
2022-12-14T00:41:13.859Z,11.63
2022-12-14T00:43:41.249Z,11.57
2022-12-14T00:46:08.741Z,10.00
2022-12-14T00:48:35.990Z,12.32
2022-12-14T00:53:30.211Z,12.45
2022-12-14T00:55:57.281Z,11.70
2022-12-14T01:01:01.541Z,10.68
2022-12-14T01:03:29.106Z,11.73
2022-12-14T01:05:56.524Z,12.30
2022-12-14T01:08:23.995Z,11.02
2022-12-14T01:10:51.751Z,11.20
2022-12-14T01:13:18.958Z,10.50
2022-12-14T01:15:46.059Z,10.88
2022-12-14T01:18:13.207Z,10.10
2022-12-14T01:23:07.286Z,10.27
2022-12-14T01:25:34.505Z,11.10
2022-12-14T01:30:28.401Z,7.65
2022-12-14T01:32:55.372Z,10.05
2022-12-14T01:35:22.546Z,9.23
2022-12-14T01:37:49.715Z,9.05
2022-12-14T01:40:17.883Z,10.30
2022-12-14T01:42:44.884Z,10.25
2022-12-14T01:45:21.723Z,10.18
2022-12-14T01:47:55.037Z,10.60
2022-12-14T01:50:45.357Z,10.48
2022-12-14T01:53:17.712Z,9.88
2022-12-14T01:55:49.796Z,9.90
2022-12-14T01:58:20.157Z,10.15
2022-12-14T02:00:47.432Z,10.15
2022-12-14T02:05:48.515Z,9.98
2022-12-14T02:08:17.508Z,10.68
2022-12-14T02:10:45.654Z,9.82
2022-12-14T02:13:19.734Z,10.13
2022-12-14T02:15:47.079Z,11.05
2022-12-14T02:18:34.848Z,9.68
2022-12-14T02:21:39.950Z,9.55
2022-12-14T02:24:10.042Z,10.35
2022-12-14T02:27:01.611Z,10.52
2022-12-14T02:29:46.417Z,10.38
2022-12-14T02:32:38.360Z,10.05
2022-12-14T02:35:23.764Z,11.18
2022-12-14T02:38:37.575Z,10.27
2022-12-14T02:41:15.363Z,10.82
2022-12-14T02:46:48.797Z,9.13
2022-12-14T02:49:23.451Z,9.93
2022-12-14T02:52:12.147Z,10.73
2022-12-14T02:55:03.397Z,9.65
2022-12-14T02:57:40.666Z,10.68
2022-12-14T03:00:09.108Z,9.82
2022-12-14T03:02:40.465Z,10.90
2022-12-14T03:05:10.807Z,10.88
2022-12-14T03:07:51.261Z,10.18
2022-12-14T03:10:48.315Z,10.50
2022-12-14T03:13:42.276Z,10.10
2022-12-14T03:16:20.290Z,11.15
2022-12-14T03:18:54.919Z,7.35
2022-12-14T03:21:26.690Z,10.18
2022-12-14T03:23:56.490Z,10.70
2022-12-14T03:26:29.524Z,9.55
2022-12-14T03:29:02.946Z,9.95
2022-12-14T03:31:43.640Z,10.52
2022-12-14T03:34:18.726Z,10.45
2022-12-14T03:37:09.571Z,9.35
2022-12-14T03:39:39.550Z,10.38
2022-12-14T03:42:39.805Z,10.45
2022-12-14T03:45:22.271Z,10.18
2022-12-14T03:48:20.259Z,10.60
2022-12-14T03:51:25.600Z,11.10
2022-12-14T03:54:15.243Z,10.88
2022-12-14T03:56:53.013Z,9.60
2022-12-14T03:59:34.655Z,8.05
2022-12-14T04:02:09.041Z,11.98
2022-12-14T04:05:29.434Z,8.55
2022-12-14T04:10:48.178Z,10.35
2022-12-14T04:13:40.191Z,10.65
2022-12-14T04:16:33.445Z,10.18
2022-12-14T04:19:05.499Z,11.25
2022-12-14T04:21:51.267Z,11.15
2022-12-14T04:24:40.682Z,8.80
2022-12-14T04:27:39.792Z,10.75
2022-12-14T04:32:41.566Z,11.55
2022-12-14T04:35:34.092Z,11.88
2022-12-14T04:38:33.569Z,11.25
2022-12-14T04:41:06.194Z,11.68
2022-12-14T04:43:37.330Z,11.70
2022-12-14T04:46:09.392Z,11.15
2022-12-14T04:48:39.789Z,12.27
2022-12-14T04:51:23.338Z,13.10
2022-12-14T04:53:54.720Z,11.98
2022-12-14T04:56:40.216Z,11.95
2022-12-14T04:59:07.917Z,12.30
2022-12-14T05:02:04.341Z,12.30
2022-12-14T05:04:55.334Z,9.63
2022-12-14T05:07:30.377Z,13.10
2022-12-14T05:10:03.726Z,13.13
2022-12-14T05:12:36.650Z,12.30
2022-12-14T05:15:07.385Z,13.05
2022-12-14T05:17:39.830Z,12.45
2022-12-14T05:20:14.535Z,12.35
2022-12-14T05:22:41.998Z,12.80
2022-12-14T05:25:09.387Z,13.73
2022-12-14T05:27:36.546Z,11.98
2022-12-14T05:32:31.989Z,12.70
2022-12-14T05:34:59.318Z,14.00
2022-12-14T05:37:29.600Z,12.93
2022-12-14T05:39:56.676Z,12.85
2022-12-14T05:42:23.930Z,12.65
2022-12-14T05:44:51.087Z,12.48
2022-12-14T05:47:19.013Z,12.98
2022-12-14T05:49:46.069Z,13.20
2022-12-14T05:52:17.067Z,11.35
2022-12-14T05:54:44.082Z,12.93
2022-12-14T05:57:11.156Z,12.75
2022-12-14T06:02:05.705Z,12.68
2022-12-14T06:04:32.941Z,12.60
2022-12-14T06:07:00.147Z,11.75
2022-12-14T06:11:56.709Z,14.45
2022-12-14T06:16:51.684Z,14.05
2022-12-14T06:19:19.320Z,12.88
2022-12-14T06:21:46.300Z,13.25
2022-12-14T06:24:13.932Z,12.65
2022-12-14T06:26:41.337Z,12.88
2022-12-14T06:29:14.139Z,13.27
2022-12-14T06:31:41.166Z,10.82
2022-12-14T06:34:10.147Z,11.48
2022-12-14T06:36:38.970Z,12.35
2022-12-14T06:39:09.269Z,13.50
2022-12-14T06:41:36.454Z,13.15
2022-12-14T06:44:10.158Z,13.82
2022-12-14T06:46:37.408Z,12.45
2022-12-14T06:49:06.458Z,12.77
2022-12-14T06:51:39.622Z,13.18
2022-12-14T06:54:09.205Z,12.80
2022-12-14T06:56:37.123Z,14.23
2022-12-14T06:59:05.464Z,13.88
2022-12-14T07:01:32.910Z,13.90
2022-12-14T07:04:00.392Z,13.02
2022-12-14T07:06:31.561Z,12.93
2022-12-14T07:08:59.623Z,13.07
2022-12-14T07:11:28.626Z,14.73
2022-12-14T07:13:56.674Z,13.20
2022-12-14T07:16:25.503Z,13.35
2022-12-14T07:18:54.297Z,12.95
2022-12-14T07:21:22.737Z,13.98
2022-12-14T07:23:51.846Z,13.95
2022-12-14T07:26:24.597Z,13.98
2022-12-14T07:28:55.765Z,12.48
2022-12-14T07:31:28.372Z,12.82
2022-12-14T07:33:57.419Z,13.10
2022-12-14T07:36:26.656Z,14.30
2022-12-14T07:38:55.709Z,14.27
2022-12-14T07:41:41.827Z,14.65
2022-12-14T07:44:09.686Z,14.25
2022-12-14T07:46:37.194Z,13.93
2022-12-14T07:49:04.498Z,15.50
2022-12-14T07:51:35.933Z,14.60
2022-12-14T07:54:05.618Z,14.77
2022-12-14T07:56:34.866Z,14.10
2022-12-14T07:59:04.331Z,14.38
2022-12-14T08:01:34.094Z,14.27
2022-12-14T08:04:09.694Z,15.18
2022-12-14T08:06:37.438Z,14.45
2022-12-14T08:09:05.344Z,13.55
2022-12-14T08:11:32.581Z,14.10
2022-12-14T08:16:28.553Z,14.15
2022-12-14T08:18:57.629Z,11.98
2022-12-14T08:21:26.280Z,14.68
2022-12-14T08:23:55.220Z,14.52
2022-12-14T08:26:24.914Z,13.85
2022-12-14T08:28:56.613Z,12.45
2022-12-14T08:31:27.982Z,14.50
2022-12-14T08:33:55.696Z,15.43
2022-12-14T08:36:25.469Z,15.70
2022-12-14T08:38:54.988Z,16.90
2022-12-14T08:41:23.162Z,15.38
2022-12-14T08:43:58.391Z,16.33
2022-12-14T08:46:32.777Z,14.75
2022-12-14T08:49:00.113Z,15.98
2022-12-14T08:51:28.374Z,17.42
2022-12-14T08:54:00.031Z,17.92
2022-12-14T08:56:28.837Z,14.73
2022-12-14T08:58:57.313Z,10.07
2022-12-14T09:01:33.367Z,15.05
2022-12-14T09:04:06.645Z,14.50
2022-12-14T09:06:39.269Z,15.10
2022-12-14T09:09:15.562Z,14.13
2022-12-14T09:11:44.325Z,11.65
2022-12-14T09:14:11.447Z,12.50
2022-12-14T09:16:41.173Z,12.77
2022-12-14T09:19:08.306Z,9.40
2022-12-14T09:24:09.293Z,13.10
2022-12-14T09:26:36.412Z,9.35
2022-12-14T09:29:03.800Z,9.48
2022-12-14T09:31:30.894Z,12.48
2022-12-14T09:36:29.024Z,10.60
2022-12-14T09:38:57.814Z,10.52
2022-12-14T09:41:33.766Z,8.10
2022-12-14T09:44:25.655Z,11.02
2022-12-14T09:46:58.553Z,14.02
2022-12-14T09:49:30.467Z,10.45
2022-12-14T09:52:01.829Z,11.85
2022-12-14T09:54:35.578Z,11.00
2022-12-14T09:57:20.385Z,10.60
2022-12-14T09:59:52.989Z,9.82
2022-12-14T10:02:34.130Z,11.70
2022-12-14T10:05:30.395Z,13.57
2022-12-14T10:08:26.732Z,11.80
2022-12-14T10:11:02.594Z,13.23
2022-12-14T10:13:38.300Z,9.93
2022-12-14T10:16:14.420Z,13.07
2022-12-14T10:18:59.389Z,9.05
2022-12-14T10:21:32.732Z,9.20
2022-12-14T10:24:04.643Z,8.73
2022-12-14T10:26:38.560Z,12.10
2022-12-14T10:29:15.235Z,10.15
2022-12-14T10:32:02.190Z,13.43
2022-12-14T10:34:34.928Z,12.15
2022-12-14T10:37:20.384Z,11.43
2022-12-14T10:40:04.624Z,8.98
2022-12-14T10:42:49.982Z,12.15
2022-12-14T10:45:44.106Z,10.68
2022-12-14T10:48:45.345Z,8.10
2022-12-14T10:51:33.882Z,9.65
2022-12-14T10:54:20.155Z,7.43
2022-12-14T10:56:50.495Z,6.95
2022-12-14T10:59:36.734Z,9.00
2022-12-14T11:02:20.797Z,6.97
2022-12-14T11:04:57.359Z,6.97
2022-12-14T11:07:50.131Z,5.53
2022-12-14T11:10:19.076Z,6.63
2022-12-14T11:13:16.515Z,5.57
2022-12-14T11:15:49.126Z,7.65
2022-12-14T11:18:18.756Z,5.93
2022-12-14T11:21:03.156Z,5.55
2022-12-14T11:23:38.734Z,7.28
2022-12-14T11:26:32.810Z,5.50
2022-12-14T11:29:02.344Z,4.45
2022-12-14T11:32:02.120Z,6.63
2022-12-14T11:34:37.956Z,5.40
2022-12-14T11:37:23.809Z,3.72
2022-12-14T11:40:06.845Z,5.30
2022-12-14T11:42:37.346Z,4.70
2022-12-14T11:45:25.509Z,3.60
2022-12-14T11:48:09.760Z,3.83
2022-12-14T11:50:37.058Z,3.88
2022-12-14T11:53:11.283Z,3.60
2022-12-14T11:55:44.328Z,3.92
2022-12-14T11:58:26.494Z,3.60
2022-12-14T12:01:00.980Z,3.03
2022-12-14T12:03:33.597Z,4.22
2022-12-14T12:06:05.177Z,3.60
2022-12-14T12:08:38.268Z,3.33
2022-12-14T12:11:16.540Z,3.65
2022-12-14T12:13:47.740Z,3.20
2022-12-14T12:16:20.067Z,2.83
2022-12-14T12:19:07.884Z,2.90
2022-12-14T12:21:41.861Z,3.10
2022-12-14T12:24:21.457Z,2.67
2022-12-14T12:26:55.506Z,3.08
2022-12-14T12:29:47.757Z,2.67
2022-12-14T12:32:34.349Z,3.17
2022-12-14T12:35:14.302Z,2.75
2022-12-14T12:37:56.338Z,3.15
2022-12-14T12:40:34.566Z,3.00
2022-12-14T12:43:13.110Z,3.60
2022-12-14T12:45:52.045Z,2.55
2022-12-14T12:48:29.582Z,3.70
2022-12-14T12:51:04.150Z,2.95
2022-12-14T12:53:34.618Z,3.42
2022-12-14T12:56:28.300Z,3.22
2022-12-14T12:58:56.608Z,3.50
2022-12-14T13:01:33.634Z,3.40
2022-12-14T13:04:05.879Z,4.18
2022-12-14T13:07:01.795Z,3.35
2022-12-14T13:09:34.805Z,3.78
2022-12-14T13:12:03.445Z,3.17
2022-12-14T13:14:49.672Z,3.40
2022-12-14T13:18:06.741Z,4.20
2022-12-14T13:20:34.906Z,4.47
2022-12-14T13:23:28.349Z,5.70
2022-12-14T13:26:00.785Z,3.67
2022-12-14T13:29:17.303Z,3.42
2022-12-14T13:32:05.526Z,3.70
2022-12-14T13:34:57.404Z,3.67
2022-12-14T13:38:07.842Z,3.17
2022-12-14T13:40:53.542Z,3.10
2022-12-14T13:43:39.350Z,3.67
2022-12-14T13:46:17.867Z,3.67
2022-12-14T13:48:50.489Z,2.55
2022-12-14T13:51:32.181Z,3.40
2022-12-14T13:54:03.025Z,3.40
2022-12-14T13:56:35.098Z,4.00
2022-12-14T13:59:06.776Z,4.43
2022-12-14T14:01:50.917Z,3.92
2022-12-14T14:04:19.679Z,3.45
2022-12-14T14:06:51.814Z,2.85
2022-12-14T14:09:34.124Z,3.50
2022-12-14T14:12:28.946Z,3.78
2022-12-14T14:15:19.974Z,3.58
2022-12-14T14:17:53.531Z,3.63
2022-12-14T14:20:47.023Z,3.95
2022-12-14T14:23:13.951Z,4.55
2022-12-14T14:25:54.299Z,4.88
2022-12-14T14:28:29.140Z,4.40
2022-12-14T14:31:00.950Z,3.63
2022-12-14T14:33:46.481Z,4.15
2022-12-14T14:36:36.089Z,4.20
2022-12-14T14:39:55.038Z,4.32
2022-12-14T14:42:22.469Z,3.47
2022-12-14T14:44:54.461Z,3.35
2022-12-14T14:47:31.164Z,4.13
2022-12-14T14:50:02.155Z,3.90
2022-12-14T14:52:39.217Z,4.30
2022-12-14T14:55:53.442Z,3.25
2022-12-14T14:58:29.140Z,3.90
2022-12-14T15:01:02.193Z,4.10
2022-12-14T15:03:41.224Z,3.53
2022-12-14T15:06:14.543Z,3.78
2022-12-14T15:08:55.848Z,3.45
2022-12-14T15:11:24.492Z,4.55
2022-12-14T15:14:01.332Z,3.47
2022-12-14T15:16:43.316Z,4.10
2022-12-14T15:19:36.048Z,3.38
2022-12-14T15:22:06.927Z,3.95
2022-12-14T15:24:44.305Z,5.18
2022-12-14T15:27:24.405Z,5.30
2022-12-14T15:29:52.331Z,5.03
2022-12-14T15:32:22.834Z,4.35
2022-12-14T15:34:57.370Z,4.97
2022-12-14T15:37:41.709Z,5.82
2022-12-14T15:40:22.497Z,5.18
2022-12-14T15:42:53.103Z,5.53
2022-12-14T15:45:22.919Z,5.10
2022-12-14T15:47:50.783Z,5.65
2022-12-14T15:50:34.175Z,4.07
2022-12-14T15:53:38.758Z,3.70
2022-12-14T15:56:42.076Z,4.35
2022-12-14T15:59:22.343Z,4.90
2022-12-14T16:02:01.408Z,4.90
2022-12-14T16:04:32.615Z,5.05
2022-12-14T16:07:15.105Z,5.03
2022-12-14T16:09:49.977Z,6.20
2022-12-14T16:12:44.393Z,4.47
2022-12-14T16:15:24.739Z,5.85
2022-12-14T16:18:02.090Z,5.05
2022-12-14T16:20:33.023Z,6.50
2022-12-14T16:23:28.269Z,6.03
2022-12-14T16:25:55.483Z,5.95
2022-12-14T16:28:34.988Z,6.63
2022-12-14T16:31:08.467Z,5.82
2022-12-14T16:33:37.092Z,4.68
2022-12-14T16:36:08.497Z,3.95
2022-12-14T16:38:58.133Z,4.97
2022-12-14T16:41:51.478Z,6.30
2022-12-14T16:44:37.387Z,6.68
2022-12-14T16:47:26.279Z,4.55
2022-12-14T16:50:00.083Z,5.10
2022-12-14T16:52:32.817Z,10.27
2022-12-14T16:55:15.838Z,4.53
2022-12-14T16:57:49.084Z,6.90
2022-12-14T17:00:32.267Z,4.75
2022-12-14T17:03:19.799Z,6.22
2022-12-14T17:05:56.396Z,4.70
2022-12-14T17:08:23.405Z,4.50
2022-12-14T17:10:51.360Z,5.43
2022-12-14T17:13:18.419Z,5.93
2022-12-14T17:16:00.718Z,6.60
2022-12-14T17:18:32.243Z,5.32
2022-12-14T17:20:59.907Z,5.55
2022-12-14T17:23:27.765Z,4.80
2022-12-14T17:25:55.013Z,6.38
2022-12-14T17:28:27.264Z,5.43
2022-12-14T17:30:57.756Z,6.93
2022-12-14T17:33:27.060Z,5.80
2022-12-14T17:35:57.351Z,5.93
2022-12-14T17:38:27.523Z,4.43
2022-12-14T17:40:54.600Z,4.30
2022-12-14T17:45:53.198Z,3.90
2022-12-14T17:48:28.794Z,4.40
2022-12-14T17:50:56.244Z,4.20
2022-12-14T17:53:30.604Z,4.28
2022-12-14T17:55:58.978Z,4.88
2022-12-14T17:58:26.032Z,4.07
2022-12-14T18:01:02.144Z,3.83
2022-12-14T18:03:36.666Z,4.80
2022-12-14T18:06:06.287Z,4.82
2022-12-14T18:08:33.385Z,5.00
2022-12-14T18:16:16.229Z,4.18
2022-12-14T18:18:44.133Z,4.32
2022-12-14T18:21:21.836Z,4.72
2022-12-14T18:23:49.781Z,3.63
2022-12-14T18:26:21.181Z,3.97
2022-12-14T18:28:49.973Z,4.72
2022-12-14T18:31:22.319Z,4.40
2022-12-14T18:33:52.877Z,6.43
2022-12-14T18:36:21.728Z,4.25
2022-12-14T18:38:50.019Z,3.80
2022-12-14T18:41:23.172Z,5.70
2022-12-14T18:43:51.378Z,4.50
2022-12-14T18:46:18.534Z,4.43
2022-12-14T18:48:45.835Z,5.15
2022-12-14T18:51:16.266Z,4.75
2022-12-14T18:53:43.791Z,3.80
2022-12-14T18:56:12.074Z,4.72
2022-12-14T18:58:45.437Z,4.72
2022-12-14T19:01:21.691Z,4.43
2022-12-14T19:03:50.794Z,4.68
2022-12-14T19:06:43.418Z,4.22
2022-12-14T19:09:07.910Z,3.90
2022-12-14T19:11:44.705Z,4.20
2022-12-14T19:14:12.340Z,4.68
2022-12-14T19:16:40.926Z,4.43
2022-12-14T19:19:08.498Z,4.13
2022-12-14T19:21:36.091Z,6.50
2022-12-14T19:24:03.786Z,3.97
2022-12-14T19:26:31.456Z,9.32
2022-12-14T19:28:59.206Z,5.72
2022-12-14T19:31:26.897Z,3.75
2022-12-14T19:33:54.596Z,4.00
2022-12-14T19:36:22.998Z,5.00
2022-12-14T19:38:50.788Z,5.32
2022-12-14T19:41:20.757Z,4.82
2022-12-14T19:43:48.636Z,4.45
2022-12-14T19:46:17.925Z,4.03
2022-12-14T19:48:45.906Z,4.90
2022-12-14T19:51:13.786Z,4.88
2022-12-14T19:53:46.067Z,5.80
2022-12-14T19:56:18.489Z,5.00
2022-12-14T19:58:47.890Z,4.32
2022-12-14T20:01:18.097Z,4.65
2022-12-14T20:03:46.289Z,5.40
2022-12-14T20:06:13.540Z,3.78
2022-12-14T20:08:40.822Z,5.50
2022-12-14T20:11:10.909Z,3.78
2022-12-14T20:13:38.565Z,4.45
2022-12-14T20:16:06.196Z,4.13
2022-12-14T20:18:33.816Z,4.88
2022-12-14T20:21:03.705Z,4.25
2022-12-14T20:23:32.444Z,4.47
2022-12-14T20:26:01.454Z,3.70
2022-12-14T20:28:29.243Z,3.88
2022-12-14T20:30:56.760Z,4.07
2022-12-14T20:33:29.528Z,5.28
2022-12-14T20:35:57.635Z,4.88
2022-12-14T20:38:24.973Z,5.78
2022-12-14T20:40:52.812Z,4.25
2022-12-14T20:43:20.441Z,5.32
2022-12-14T20:45:47.593Z,7.05
2022-12-14T20:50:43.637Z,5.25
2022-12-14T20:53:10.833Z,4.57
2022-12-14T20:55:37.847Z,5.03
2022-12-14T21:00:32.113Z,4.57
2022-12-14T21:02:59.380Z,4.38
2022-12-14T21:05:26.525Z,5.88
2022-12-14T21:10:20.263Z,4.53
2022-12-14T21:12:50.483Z,3.67
2022-12-14T21:15:17.638Z,3.92
2022-12-14T21:17:44.940Z,5.47
2022-12-14T21:20:12.609Z,4.10
2022-12-14T21:22:39.618Z,4.90
2022-12-14T21:25:07.647Z,4.47
2022-12-14T21:27:38.598Z,5.65
2022-12-14T21:30:08.501Z,4.00
2022-12-14T21:32:37.227Z,3.80
2022-12-14T21:35:05.067Z,3.60
2022-12-14T21:37:32.123Z,4.60
2022-12-14T21:42:26.605Z,4.72
2022-12-14T21:44:54.367Z,4.68
2022-12-14T21:47:27.131Z,4.07
2022-12-14T21:49:54.877Z,4.40
2022-12-14T21:52:24.099Z,4.55
2022-12-14T21:54:51.125Z,5.82
2022-12-14T22:00:08.356Z,4.88
2022-12-14T22:02:42.525Z,5.47
2022-12-14T22:05:10.558Z,4.35
2022-12-14T22:07:37.631Z,5.85
2022-12-14T22:12:31.932Z,4.43
2022-12-14T22:14:58.953Z,5.30
2022-12-14T22:17:26.002Z,4.05
2022-12-14T22:22:22.468Z,4.28
2022-12-14T22:27:17.662Z,4.23
2022-12-14T22:29:44.610Z,5.30
2022-12-14T22:32:12.710Z,5.90
2022-12-14T22:34:39.723Z,5.45
2022-12-14T22:37:06.955Z,5.65
2022-12-14T22:39:34.634Z,5.88
2022-12-14T22:42:01.659Z,4.60
2022-12-14T22:46:55.484Z,5.53
2022-12-14T22:49:22.792Z,5.10
2022-12-14T22:51:50.696Z,5.55
2022-12-14T22:54:26.070Z,5.53
2022-12-14T22:56:59.663Z,4.50
2022-12-14T23:00:01.585Z,4.57
2022-12-14T23:02:31.623Z,5.00
2022-12-14T23:04:58.977Z,5.70
2022-12-14T23:07:26.040Z,7.07
2022-12-14T23:12:58.204Z,4.97
2022-12-14T23:15:44.509Z,6.25
2022-12-14T23:18:29.873Z,6.65
2022-12-14T23:21:16.094Z,6.68
2022-12-14T23:24:04.498Z,5.63
2022-12-14T23:26:49.988Z,6.60
2022-12-14T23:29:35.340Z,5.40
2022-12-14T23:32:21.185Z,6.93
2022-12-14T23:35:06.775Z,8.20
2022-12-14T23:37:52.416Z,7.45
2022-12-14T23:40:37.995Z,7.00
2022-12-14T23:43:41.542Z,7.70
2022-12-14T23:46:27.229Z,8.43
2022-12-14T23:49:16.015Z,8.30
2022-12-14T23:52:01.857Z,7.55
2022-12-14T23:54:47.887Z,6.53
2022-12-14T23:57:33.737Z,7.57
